createdAt,value
2019-03-03T00:01:11.390Z,75.03
2019-03-03T00:03:45.357Z,74.78
2019-03-03T00:06:13.871Z,74.78
2019-03-03T00:08:41.958Z,75.00
2019-03-03T00:11:10.303Z,74.53
2019-03-03T00:13:38.760Z,74.73
2019-03-03T00:16:07.452Z,74.70
2019-03-03T00:18:38.846Z,74.51
2019-03-03T00:21:11.269Z,74.32
2019-03-03T00:23:41.291Z,74.51
2019-03-03T00:26:09.449Z,74.61
2019-03-03T00:28:37.911Z,74.30
2019-03-03T00:31:05.971Z,74.28
2019-03-03T00:33:34.155Z,74.17
2019-03-03T00:36:02.263Z,74.12
2019-03-03T00:39:06.093Z,74.11
2019-03-03T00:41:53.599Z,74.18
2019-03-03T00:44:40.209Z,73.77
2019-03-03T00:47:37.134Z,74.14
2019-03-03T00:50:25.254Z,73.79
2019-03-03T00:53:18.959Z,73.83
2019-03-03T00:55:55.282Z,73.50
2019-03-03T00:58:58.337Z,73.21
2019-03-03T01:01:54.921Z,73.46
2019-03-03T01:04:33.784Z,73.29
2019-03-03T01:07:27.547Z,73.19
2019-03-03T01:10:21.077Z,73.24
2019-03-03T01:12:56.141Z,73.17
2019-03-03T01:15:42.840Z,73.01
2019-03-03T01:18:29.683Z,73.16
2019-03-03T01:21:16.343Z,73.06
2019-03-03T01:23:51.205Z,73.23
2019-03-03T01:26:19.280Z,72.83
2019-03-03T01:28:47.306Z,73.20
2019-03-03T01:31:16.543Z,73.14
2019-03-03T01:33:44.859Z,73.32
2019-03-03T01:36:13.009Z,72.88
2019-03-03T01:38:41.146Z,72.85
2019-03-03T01:41:09.490Z,72.39
2019-03-03T01:43:39.295Z,72.37
2019-03-03T01:46:07.547Z,72.27
2019-03-03T01:48:35.696Z,72.12
2019-03-03T01:51:03.748Z,72.39
2019-03-03T01:53:31.819Z,72.25
2019-03-03T01:56:00.439Z,72.31
2019-03-03T01:58:28.511Z,71.64
2019-03-03T02:00:56.693Z,71.79
2019-03-03T02:03:24.907Z,72.36
2019-03-03T02:05:52.994Z,71.52
2019-03-03T02:08:21.427Z,71.30
2019-03-03T02:10:49.545Z,71.07
2019-03-03T02:13:18.883Z,70.98
2019-03-03T02:15:46.944Z,70.90
2019-03-03T02:18:14.953Z,70.40
2019-03-03T02:20:43.880Z,70.28
2019-03-03T02:23:12.264Z,70.47
2019-03-03T02:25:40.260Z,70.19
2019-03-03T02:28:08.550Z,70.11
2019-03-03T02:30:36.611Z,70.19
2019-03-03T02:33:06.906Z,70.22
2019-03-03T02:35:35.071Z,70.40
2019-03-03T02:38:03.093Z,70.12
2019-03-03T02:40:31.217Z,69.83
2019-03-03T02:42:59.711Z,69.55
2019-03-03T02:45:27.746Z,69.26
2019-03-03T02:47:56.040Z,68.89
2019-03-03T02:50:24.102Z,69.44
2019-03-03T02:52:52.271Z,69.21
2019-03-03T02:55:20.266Z,68.96
2019-03-03T02:57:48.395Z,69.10
2019-03-03T03:00:19.375Z,69.33
2019-03-03T03:02:52.222Z,69.43
2019-03-03T03:05:56.964Z,69.75
2019-03-03T03:08:32.605Z,69.79
2019-03-03T03:11:08.268Z,70.38
2019-03-03T03:13:55.580Z,70.57
2019-03-03T03:16:52.021Z,70.08
2019-03-03T03:19:39.904Z,70.03
2019-03-03T03:22:27.580Z,69.29
2019-03-03T03:25:10.143Z,69.30
2019-03-03T03:27:49.612Z,69.02
2019-03-03T03:30:37.392Z,69.33
2019-03-03T03:33:16.409Z,69.55
2019-03-03T03:35:50.387Z,69.78
2019-03-03T03:38:27.162Z,70.07
2019-03-03T03:41:20.537Z,70.39
2019-03-03T03:44:01.262Z,70.84
2019-03-03T03:46:44.277Z,70.87
2019-03-03T03:49:19.943Z,71.03
2019-03-03T03:51:58.417Z,71.34
2019-03-03T03:54:52.576Z,71.33
2019-03-03T03:57:28.177Z,71.31
2019-03-03T04:00:15.812Z,71.81
2019-03-03T04:03:15.624Z,71.74
2019-03-03T04:06:01.889Z,72.27
2019-03-03T04:08:38.377Z,72.26
2019-03-03T04:11:34.933Z,72.30
2019-03-03T04:14:07.328Z,72.53
2019-03-03T04:16:41.109Z,72.84
2019-03-03T04:19:28.704Z,72.71
2019-03-03T04:22:12.355Z,73.34
2019-03-03T04:25:09.101Z,73.23
2019-03-03T04:27:44.399Z,73.31
2019-03-03T04:30:20.852Z,73.24
2019-03-03T04:33:07.610Z,73.31
2019-03-03T04:35:47.716Z,73.80
2019-03-03T04:38:35.376Z,73.48
2019-03-03T04:41:25.962Z,73.97
2019-03-03T04:44:25.966Z,73.30
2019-03-03T04:47:09.095Z,73.62
2019-03-03T04:50:00.954Z,73.46
2019-03-03T04:53:00.704Z,73.53
2019-03-03T04:56:07.072Z,72.83
2019-03-03T04:58:57.413Z,72.96
2019-03-03T05:01:45.834Z,73.62
2019-03-03T05:04:23.885Z,73.76
2019-03-03T05:07:11.538Z,73.38
2019-03-03T05:09:45.590Z,73.71
2019-03-03T05:12:36.084Z,73.83
2019-03-03T05:15:27.716Z,74.12
2019-03-03T05:18:01.648Z,73.72
2019-03-03T05:20:44.352Z,73.53
2019-03-03T05:23:13.319Z,73.61
2019-03-03T05:25:41.354Z,73.13
2019-03-03T05:28:10.896Z,73.18
2019-03-03T05:30:40.857Z,73.33
2019-03-03T05:33:11.214Z,73.84
2019-03-03T05:35:39.520Z,73.82
2019-03-03T05:38:07.574Z,74.26
2019-03-03T05:40:36.711Z,74.31
2019-03-03T05:43:04.763Z,74.56
2019-03-03T05:45:33.165Z,74.77
2019-03-03T05:48:01.703Z,74.68
2019-03-03T05:50:29.692Z,75.07
2019-03-03T05:52:57.759Z,75.14
2019-03-03T05:55:25.760Z,75.22
2019-03-03T05:57:53.722Z,75.30
2019-03-03T06:00:21.746Z,75.77
2019-03-03T06:02:52.889Z,75.96
2019-03-03T06:05:20.951Z,75.71
2019-03-03T06:07:49.012Z,75.16
2019-03-03T06:10:17.299Z,74.65
2019-03-03T06:12:45.405Z,74.23
2019-03-03T06:15:13.648Z,73.47
2019-03-03T06:17:41.770Z,73.41
2019-03-03T06:20:10.777Z,72.83
2019-03-03T06:22:38.745Z,72.70
2019-03-03T06:25:09.081Z,72.86
2019-03-03T06:27:37.210Z,73.06
2019-03-03T06:30:06.864Z,72.46
2019-03-03T06:32:34.865Z,72.15
2019-03-03T06:35:03.682Z,72.32
2019-03-03T06:37:32.345Z,71.57
2019-03-03T06:40:00.581Z,71.58
2019-03-03T06:42:30.127Z,71.77
2019-03-03T06:44:58.414Z,71.19
2019-03-03T06:47:26.714Z,71.67
2019-03-03T06:49:54.831Z,71.70
2019-03-03T06:52:22.829Z,71.65
2019-03-03T06:54:52.804Z,71.26
2019-03-03T06:57:20.764Z,70.82
2019-03-03T06:59:48.891Z,70.62
2019-03-03T07:02:16.903Z,70.33
2019-03-03T07:04:44.934Z,69.88
2019-03-03T07:07:13.059Z,69.88
2019-03-03T07:09:41.146Z,69.70
2019-03-03T07:12:11.386Z,69.11
2019-03-03T07:14:39.724Z,68.35
2019-03-03T07:17:07.870Z,68.21
2019-03-03T07:19:36.007Z,67.66
2019-03-03T07:22:06.051Z,67.33
2019-03-03T07:24:34.213Z,67.77
2019-03-03T07:27:02.387Z,66.52
2019-03-03T07:29:30.529Z,66.57
2019-03-03T07:31:58.539Z,66.94
2019-03-03T07:34:26.642Z,66.57
2019-03-03T07:36:54.717Z,66.00
2019-03-03T07:39:22.751Z,65.72
2019-03-03T07:41:50.794Z,64.64
2019-03-03T07:44:18.854Z,64.00
2019-03-03T07:46:46.908Z,63.09
2019-03-03T07:49:15.160Z,63.55
2019-03-03T07:51:43.141Z,63.04
2019-03-03T07:54:12.420Z,62.58
2019-03-03T07:56:40.512Z,62.82
2019-03-03T07:59:08.551Z,62.94
2019-03-03T08:01:38.587Z,62.55
2019-03-03T08:04:07.171Z,62.18
2019-03-03T08:06:35.351Z,62.91
2019-03-03T08:09:06.378Z,62.60
2019-03-03T08:11:34.615Z,62.96
2019-03-03T08:14:04.183Z,62.64
2019-03-03T08:16:32.665Z,63.05
2019-03-03T08:19:01.806Z,63.07
2019-03-03T08:21:30.893Z,62.89
2019-03-03T08:24:00.257Z,62.24
2019-03-03T08:26:28.506Z,62.70
2019-03-03T08:28:56.913Z,62.36
2019-03-03T08:31:24.959Z,62.85
2019-03-03T08:33:53.072Z,62.61
2019-03-03T08:36:22.326Z,63.00
2019-03-03T08:38:50.559Z,62.70
2019-03-03T08:41:18.695Z,62.62
2019-03-03T08:44:00.108Z,63.16
2019-03-03T08:46:44.562Z,63.29
2019-03-03T08:49:34.924Z,63.06
2019-03-03T08:52:17.255Z,62.43
2019-03-03T08:55:05.276Z,61.94
2019-03-03T08:58:02.084Z,62.25
2019-03-03T09:01:06.153Z,62.07
2019-03-03T09:04:02.699Z,62.03
2019-03-03T09:06:54.578Z,62.86
2019-03-03T09:09:55.187Z,62.17
2019-03-03T09:12:41.980Z,62.55
2019-03-03T09:15:26.565Z,62.03
2019-03-03T09:18:15.068Z,61.72
2019-03-03T09:20:56.338Z,61.56
2019-03-03T09:23:50.947Z,62.18
2019-03-03T09:26:42.887Z,62.03
2019-03-03T09:29:33.916Z,61.99
2019-03-03T09:32:28.197Z,60.71
2019-03-03T09:35:30.778Z,60.79
2019-03-03T09:38:30.756Z,60.99
2019-03-03T09:41:15.307Z,60.86
2019-03-03T09:43:59.612Z,61.25
2019-03-03T09:46:47.750Z,60.57
2019-03-03T09:49:27.478Z,60.85
2019-03-03T09:52:15.409Z,60.54
2019-03-03T09:55:08.948Z,60.26
2019-03-03T09:58:12.305Z,60.43
2019-03-03T10:01:06.096Z,60.37
2019-03-03T10:03:42.302Z,60.46
2019-03-03T10:06:33.135Z,59.96
2019-03-03T10:09:26.309Z,59.83
2019-03-03T10:11:58.851Z,59.94
2019-03-03T10:14:46.666Z,59.24
2019-03-03T10:17:40.430Z,58.77
2019-03-03T10:20:31.949Z,57.88
2019-03-03T10:23:16.229Z,58.10
2019-03-03T10:26:10.049Z,57.97
2019-03-03T10:28:57.897Z,57.87
2019-03-03T10:31:52.079Z,57.02
2019-03-03T10:34:31.424Z,57.20
2019-03-03T10:37:22.331Z,57.56
2019-03-03T10:40:04.140Z,57.36
2019-03-03T10:42:41.562Z,57.12
2019-03-03T10:45:31.864Z,56.84
2019-03-03T10:48:25.899Z,57.43
2019-03-03T10:51:13.804Z,57.16
2019-03-03T10:53:53.215Z,57.60
2019-03-03T10:56:32.581Z,56.68
2019-03-03T10:59:06.713Z,56.45
2019-03-03T11:01:47.017Z,56.59
2019-03-03T11:04:35.948Z,56.61
2019-03-03T11:07:29.934Z,56.13
2019-03-03T11:10:27.787Z,57.33
2019-03-03T11:13:30.865Z,55.91
2019-03-03T11:16:18.226Z,56.01
2019-03-03T11:19:20.053Z,55.95
2019-03-03T11:22:03.478Z,55.93
2019-03-03T11:24:58.080Z,57.01
2019-03-03T11:27:36.767Z,56.46
2019-03-03T11:30:14.745Z,55.91
2019-03-03T11:32:53.974Z,55.45
2019-03-03T11:35:44.744Z,55.11
2019-03-03T11:38:22.706Z,54.63
2019-03-03T11:41:10.371Z,54.66
2019-03-03T11:43:46.294Z,54.76
2019-03-03T11:46:34.456Z,54.26
2019-03-03T11:49:14.624Z,54.85
2019-03-03T11:52:08.541Z,54.49
2019-03-03T11:54:46.573Z,54.31
2019-03-03T11:57:49.328Z,53.04
2019-03-03T12:00:40.015Z,53.26
2019-03-03T12:03:30.854Z,53.12
2019-03-03T12:06:18.866Z,53.28
2019-03-03T12:08:57.536Z,51.82
2019-03-03T12:11:54.441Z,53.03
2019-03-03T12:14:52.163Z,53.47
2019-03-03T12:17:41.065Z,54.01
2019-03-03T12:20:41.139Z,54.34
2019-03-03T12:23:44.007Z,54.53
2019-03-03T12:26:31.972Z,54.77
2019-03-03T12:29:18.356Z,54.66
2019-03-03T12:31:56.132Z,54.34
2019-03-03T12:34:42.717Z,54.13
2019-03-03T12:37:20.511Z,52.98
2019-03-03T12:40:07.386Z,53.25
2019-03-03T12:42:58.514Z,52.89
2019-03-03T12:46:02.445Z,51.79
2019-03-03T12:48:50.336Z,50.24
2019-03-03T12:51:53.378Z,49.82
2019-03-03T12:54:46.753Z,48.73
2019-03-03T12:57:53.263Z,48.41
2019-03-03T13:00:48.502Z,49.74
2019-03-03T13:03:46.115Z,49.66
2019-03-03T13:06:32.519Z,50.42
2019-03-03T13:09:12.059Z,51.07
2019-03-03T13:11:50.968Z,51.87
2019-03-03T13:14:30.085Z,50.62
2019-03-03T13:17:13.795Z,51.26
2019-03-03T13:20:10.545Z,51.40
2019-03-03T13:22:47.748Z,52.33
2019-03-03T13:25:38.383Z,52.04
2019-03-03T13:28:26.229Z,51.39
2019-03-03T13:31:25.599Z,51.82
2019-03-03T13:34:15.964Z,51.42
2019-03-03T13:36:52.590Z,50.87
2019-03-03T13:39:34.557Z,51.59
2019-03-03T13:42:19.097Z,51.11
2019-03-03T13:44:49.069Z,52.03
2019-03-03T13:47:20.034Z,52.05
2019-03-03T13:49:48.070Z,51.84
2019-03-03T13:52:16.140Z,51.89
2019-03-03T13:54:47.303Z,52.30
2019-03-03T13:57:15.383Z,53.17
2019-03-03T13:59:43.661Z,53.74
2019-03-03T14:02:12.124Z,53.59
2019-03-03T14:04:40.409Z,53.52
2019-03-03T14:07:08.480Z,53.26
2019-03-03T14:09:36.795Z,53.56
2019-03-03T14:12:05.320Z,53.24
2019-03-03T14:14:33.447Z,53.85
2019-03-03T14:17:01.498Z,53.17
2019-03-03T14:19:29.708Z,53.25
2019-03-03T14:21:58.229Z,53.41
2019-03-03T14:24:26.479Z,52.49
2019-03-03T14:26:54.689Z,51.06
2019-03-03T14:29:23.100Z,46.08
2019-03-03T14:31:51.621Z,44.29
2019-03-03T14:34:19.765Z,42.82
2019-03-03T14:36:48.089Z,43.80
2019-03-03T14:39:16.618Z,45.40
2019-03-03T14:41:45.305Z,46.08
2019-03-03T14:44:13.733Z,45.56
2019-03-03T14:46:41.892Z,44.11
2019-03-03T14:49:12.580Z,42.25
2019-03-03T14:51:40.684Z,41.93
2019-03-03T14:54:09.891Z,39.56
2019-03-03T14:56:39.215Z,41.51
2019-03-03T14:59:07.373Z,41.68
2019-03-03T15:01:36.200Z,43.00
2019-03-03T15:04:05.416Z,42.90
2019-03-03T15:06:34.307Z,43.22
2019-03-03T15:09:05.339Z,44.44
2019-03-03T15:11:43.660Z,45.17
2019-03-03T15:14:11.738Z,45.42
2019-03-03T15:16:40.115Z,45.79
2019-03-03T15:19:08.135Z,46.15
2019-03-03T15:21:36.145Z,47.30
2019-03-03T15:24:04.421Z,47.25
2019-03-03T15:26:32.394Z,48.79
2019-03-03T15:29:00.762Z,49.07
2019-03-03T15:31:37.534Z,49.33
2019-03-03T15:33:58.972Z,50.36
2019-03-03T15:36:27.003Z,50.34
2019-03-03T15:38:55.114Z,50.28
2019-03-03T15:41:23.110Z,50.03
2019-03-03T15:43:51.142Z,50.44
2019-03-03T15:46:19.357Z,50.67
2019-03-03T15:48:47.757Z,50.26
2019-03-03T15:51:17.231Z,50.14
2019-03-03T15:53:46.080Z,50.30
2019-03-03T15:56:14.117Z,51.04
2019-03-03T15:58:42.256Z,50.89
2019-03-03T16:01:14.472Z,50.02
2019-03-03T16:03:42.540Z,50.26
2019-03-03T16:06:11.061Z,49.91
2019-03-03T16:08:39.060Z,50.37
2019-03-03T16:11:07.081Z,50.43
2019-03-03T16:13:35.095Z,50.75
2019-03-03T16:16:03.552Z,51.01
2019-03-03T16:18:31.594Z,51.50
2019-03-03T16:20:59.679Z,51.76
2019-03-03T16:23:28.084Z,52.26
2019-03-03T16:25:56.122Z,52.49
2019-03-03T16:28:24.127Z,52.16
2019-03-03T16:30:52.462Z,52.55
2019-03-03T16:33:21.571Z,52.76
2019-03-03T16:35:49.558Z,53.17
2019-03-03T16:38:18.097Z,54.14
2019-03-03T16:40:46.413Z,53.93
2019-03-03T16:43:14.439Z,53.43
2019-03-03T16:45:42.485Z,53.39
2019-03-03T16:48:10.620Z,53.33
2019-03-03T16:50:39.572Z,53.39
2019-03-03T16:53:07.919Z,54.13
2019-03-03T16:55:36.228Z,54.01
2019-03-03T16:58:05.395Z,53.57
2019-03-03T17:00:33.466Z,54.38
2019-03-03T17:03:01.509Z,53.72
2019-03-03T17:05:29.564Z,53.87
2019-03-03T17:07:57.543Z,54.14
2019-03-03T17:10:25.837Z,54.40
2019-03-03T17:12:53.903Z,54.56
2019-03-03T17:15:21.985Z,54.79
2019-03-03T17:17:50.253Z,54.12
2019-03-03T17:20:18.222Z,54.38
2019-03-03T17:22:47.388Z,54.41
2019-03-03T17:25:18.085Z,54.08
2019-03-03T17:27:46.121Z,54.22
2019-03-03T17:30:17.231Z,54.15
2019-03-03T17:32:45.510Z,54.23
2019-03-03T17:35:13.615Z,54.80
2019-03-03T17:37:41.923Z,55.21
2019-03-03T17:40:15.265Z,55.19
2019-03-03T17:42:43.566Z,55.29
2019-03-03T17:45:13.265Z,55.28
2019-03-03T17:47:41.787Z,55.35
2019-03-03T17:50:11.294Z,55.52
2019-03-03T17:52:39.391Z,55.58
2019-03-03T17:55:08.022Z,55.50
2019-03-03T17:57:36.431Z,55.81
2019-03-03T18:00:07.607Z,56.09
2019-03-03T18:02:35.637Z,56.63
2019-03-03T18:05:03.994Z,56.84
2019-03-03T18:07:32.094Z,56.70
2019-03-03T18:10:00.474Z,57.12
2019-03-03T18:12:28.945Z,57.20
2019-03-03T18:14:57.707Z,57.18
2019-03-03T18:17:25.855Z,57.74
2019-03-03T18:19:54.210Z,58.01
2019-03-03T18:22:24.463Z,58.06
2019-03-03T18:24:52.757Z,58.00
2019-03-03T18:27:20.986Z,57.86
2019-03-03T18:29:49.161Z,58.45
2019-03-03T18:32:17.337Z,58.76
2019-03-03T18:34:45.417Z,58.78
2019-03-03T18:37:14.091Z,59.17
2019-03-03T18:39:43.654Z,59.07
2019-03-03T18:42:11.848Z,58.85
2019-03-03T18:44:40.108Z,58.83
2019-03-03T18:47:08.264Z,59.42
2019-03-03T18:49:36.581Z,60.45
2019-03-03T18:52:04.704Z,59.48
2019-03-03T18:54:33.310Z,59.26
2019-03-03T18:57:01.551Z,59.50
2019-03-03T18:59:30.386Z,59.34
2019-03-03T19:01:59.809Z,59.23
2019-03-03T19:04:28.053Z,59.12
2019-03-03T19:06:56.128Z,59.39
2019-03-03T19:09:24.449Z,59.98
2019-03-03T19:11:52.656Z,59.71
2019-03-03T19:14:28.084Z,59.36
2019-03-03T19:16:51.395Z,59.56
2019-03-03T19:19:19.379Z,59.64
2019-03-03T19:21:48.333Z,59.76
2019-03-03T19:24:17.956Z,59.69
2019-03-03T19:26:46.118Z,59.60
2019-03-03T19:29:14.184Z,60.06
2019-03-03T19:31:42.369Z,60.35
2019-03-03T19:34:10.452Z,60.70
2019-03-03T19:36:38.552Z,60.17
2019-03-03T19:39:07.751Z,60.24
2019-03-03T19:41:38.356Z,60.71
2019-03-03T19:44:07.002Z,61.05
2019-03-03T19:46:35.654Z,61.20
2019-03-03T19:49:05.111Z,61.80
2019-03-03T19:51:33.293Z,61.47
2019-03-03T19:54:03.890Z,61.46
2019-03-03T19:56:32.161Z,61.55
2019-03-03T19:59:00.741Z,61.25
2019-03-03T20:01:28.934Z,61.29
2019-03-03T20:03:57.381Z,61.15
2019-03-03T20:06:25.447Z,61.30
2019-03-03T20:08:54.022Z,61.17
2019-03-03T20:11:22.373Z,61.73
2019-03-03T20:13:50.613Z,61.15
2019-03-03T20:16:20.996Z,60.57
2019-03-03T20:18:49.107Z,60.42
2019-03-03T20:21:17.432Z,60.12
2019-03-03T20:23:45.539Z,60.25
2019-03-03T20:26:13.783Z,60.08
2019-03-03T20:28:43.615Z,60.35
2019-03-03T20:31:12.418Z,60.19
2019-03-03T20:33:40.585Z,60.71
2019-03-03T20:36:09.473Z,60.70
2019-03-03T20:38:37.983Z,60.61
2019-03-03T20:41:06.226Z,60.82
2019-03-03T20:43:34.396Z,60.92
2019-03-03T20:46:02.748Z,61.45
2019-03-03T20:48:32.016Z,61.30
2019-03-03T20:51:00.292Z,61.37
2019-03-03T20:53:33.756Z,61.20
2019-03-03T20:56:02.482Z,60.96
2019-03-03T20:58:32.131Z,61.17
2019-03-03T21:01:01.020Z,61.91
2019-03-03T21:03:29.255Z,61.88
2019-03-03T21:05:57.542Z,61.86
2019-03-03T21:08:27.631Z,62.15
2019-03-03T21:10:56.165Z,61.73
2019-03-03T21:13:24.441Z,61.70
2019-03-03T21:15:52.524Z,62.04
2019-03-03T21:18:20.650Z,61.32
2019-03-03T21:20:50.126Z,61.41
2019-03-03T21:23:18.372Z,61.43
2019-03-03T21:25:46.440Z,61.51
2019-03-03T21:28:14.618Z,62.20
2019-03-03T21:30:42.795Z,62.56
2019-03-03T21:33:10.890Z,62.69
2019-03-03T21:35:41.284Z,62.65
2019-03-03T21:38:09.329Z,62.49
2019-03-03T21:40:37.559Z,63.58
2019-03-03T21:43:06.182Z,63.78
2019-03-03T21:45:34.480Z,64.04
2019-03-03T21:48:02.511Z,64.64
2019-03-03T21:50:30.735Z,64.94
2019-03-03T21:53:00.132Z,65.76
2019-03-03T21:55:28.777Z,66.09
2019-03-03T21:57:59.250Z,65.31
2019-03-03T22:00:33.133Z,64.90
2019-03-03T22:03:01.304Z,65.21
2019-03-03T22:05:29.597Z,64.74
2019-03-03T22:07:57.752Z,64.61
2019-03-03T22:10:29.454Z,64.55
2019-03-03T22:13:00.209Z,64.38
2019-03-03T22:15:28.356Z,63.33
2019-03-03T22:17:56.450Z,63.07
2019-03-03T22:20:26.696Z,63.54
2019-03-03T22:22:54.762Z,62.03
2019-03-03T22:25:23.143Z,62.05
2019-03-03T22:27:51.090Z,62.82
2019-03-03T22:30:19.211Z,62.85
2019-03-03T22:32:48.091Z,62.40
2019-03-03T22:35:16.224Z,62.56
2019-03-03T22:37:44.266Z,62.35
2019-03-03T22:40:12.404Z,62.64
2019-03-03T22:42:40.850Z,63.54
2019-03-03T22:45:11.681Z,64.05
2019-03-03T22:47:41.837Z,64.18
2019-03-03T22:50:10.905Z,64.32
2019-03-03T22:52:39.584Z,62.99
2019-03-03T22:55:08.440Z,63.08
2019-03-03T22:57:36.729Z,63.86
2019-03-03T23:00:27.585Z,64.94
2019-03-03T23:02:59.337Z,65.98
2019-03-03T23:05:50.918Z,66.86
2019-03-03T23:08:32.830Z,67.08
2019-03-03T23:11:36.582Z,67.30
2019-03-03T23:14:26.222Z,67.78
2019-03-03T23:17:53.212Z,68.00
2019-03-03T23:20:39.901Z,68.28
2019-03-03T23:24:02.890Z,68.36
2019-03-03T23:26:31.264Z,69.50
2019-03-03T23:28:59.600Z,69.30
2019-03-03T23:31:27.758Z,69.34
2019-03-03T23:33:57.484Z,69.89
2019-03-03T23:36:28.769Z,68.70
2019-03-03T23:38:59.920Z,67.56
2019-03-03T23:41:27.983Z,67.30
2019-03-03T23:43:56.225Z,66.46
2019-03-03T23:46:24.424Z,64.87
2019-03-03T23:48:52.731Z,63.18
2019-03-03T23:51:21.045Z,61.13
2019-03-03T23:53:49.171Z,59.26
2019-03-03T23:56:17.154Z,56.38
2019-03-03T23:58:46.105Z,55.76
